Time;durP1;ratioP1;P1;durP2;ratioP2;P2;SDS_P1;SDS_P2;PMS_P1;PMS_P2;Temp;Humidity;BMP_temperature;BMP_pressure;BME280_temperature;BME280_humidity;BME280_pressure;Samples;Min_cycle;Max_cycle;Signal;HPM_P1;HPM_P2
2022/03/06 00:00:31;;;;;;;;;88.50;73.00;;;;;8.91;100.00;101495.19;5095710;27;45143;-79
2022/03/06 00:02:57;;;;;;;;;90.25;64.25;;;;;9.09;100.00;101534.09;5103671;27;45618;-79
2022/03/06 00:05:22;;;;;;;;;88.50;70.75;;;;;8.89;100.00;101491.69;5098513;27;45470;-79
2022/03/06 00:07:48;;;;;;;;;92.50;77.50;;;;;9.12;100.00;101546.63;5100171;27;45277;-79
2022/03/06 00:10:13;;;;;;;;;90.75;71.75;;;;;8.86;100.00;101499.06;5074532;27;45252;-79
2022/03/06 00:12:39;;;;;;;;;88.00;73.75;;;;;9.03;100.00;101538.00;5101420;27;45616;-79
2022/03/06 00:15:05;;;;;;;;;91.75;75.00;;;;;9.09;100.00;101547.69;5101759;27;45197;-80
2022/03/06 00:17:30;;;;;;;;;90.00;76.25;;;;;8.87;100.00;101523.41;5093385;27;45128;-80
2022/03/06 00:19:56;;;;;;;;;85.25;68.00;;;;;8.69;100.00;101494.47;5099991;27;45209;-79
2022/03/06 00:22:21;;;;;;;;;96.25;82.50;;;;;8.98;100.00;101556.31;5097329;27;45986;-81
2022/03/06 00:24:46;;;;;;;;;93.50;74.50;;;;;8.83;100.00;101527.22;5101952;27;45086;-81
2022/03/06 00:27:12;;;;;;;;;87.75;71.00;;;;;8.70;100.00;101507.06;5094562;27;45243;-82
2022/03/06 00:29:37;;;;;;;;;84.25;68.00;;;;;8.97;100.00;101549.16;5096386;27;46175;-79
2022/03/06 00:32:03;;;;;;;;;84.25;64.75;;;;;8.80;100.00;101530.06;5093640;27;45552;-81
2022/03/06 00:34:29;;;;;;;;;86.25;72.00;;;;;8.62;100.00;101515.56;5078389;27;45810;-80
2022/03/06 00:36:54;;;;;;;;;90.00;75.75;;;;;8.70;100.00;101526.03;5089803;27;45145;-80
2022/03/06 00:39:19;;;;;;;;;88.25;69.50;;;;;8.42;100.00;101488.50;5103657;27;45166;-80
2022/03/06 00:41:45;;;;;;;;;92.00;70.00;;;;;8.83;100.00;101548.91;5086708;27;45565;-80
2022/03/06 00:44:10;;;;;;;;;84.75;66.50;;;;;8.71;100.00;101530.50;5090050;27;45232;-80
2022/03/06 00:46:36;;;;;;;;;81.50;65.75;;;;;8.79;100.00;101544.59;5086084;27;45354;-80
2022/03/06 00:49:01;;;;;;;;;82.25;61.75;;;;;8.07;100.00;101428.66;5101122;27;45425;-80
2022/03/06 00:51:30;;;;;;;;;83.50;69.75;;;;;8.66;100.00;101532.53;5088515;27;45613;-80
2022/03/06 00:53:55;;;;;;;;;87.50;63.25;;;;;8.75;100.00;101548.38;5080404;27;45171;-80
2022/03/06 00:56:20;;;;;;;;;88.00;70.25;;;;;7.79;100.00;101381.16;5096502;27;45429;-79
2022/03/06 00:58:46;;;;;;;;;83.75;62.50;;;;;7.69;100.00;101382.53;5111809;27;45618;-79
2022/03/06 01:01:11;;;;;;;;;90.25;67.50;;;;;8.67;100.00;101567.72;5123379;27;45194;-80
2022/03/06 01:03:37;;;;;;;;;84.00;69.00;;;;;8.46;100.00;101528.91;5120284;27;45319;-80
2022/03/06 01:06:03;;;;;;;;;81.50;62.25;;;;;8.62;100.00;101552.59;5106894;27;45383;-80
2022/03/06 01:08:28;;;;;;;;;84.00;64.50;;;;;7.45;100.00;101357.47;5101880;27;45509;-80
2022/03/06 01:10:55;;;;;;;;;89.25;68.25;;;;;7.19;100.00;101334.25;5100871;27;46056;-80
2022/03/06 01:13:22;;;;;;;;;83.50;67.25;;;;;8.38;100.00;101533.81;5107813;27;45480;-79
2022/03/06 01:15:47;;;;;;;;;81.00;63.50;;;;;6.50;100.00;101220.16;5111178;27;45376;-80
2022/03/06 01:18:13;;;;;;;;;83.50;67.75;;;;;8.46;100.00;101560.56;5100209;27;45531;-82
2022/03/06 01:20:39;;;;;;;;;86.75;63.00;;;;;7.46;100.00;101399.81;5106555;27;45656;-81
2022/03/06 01:23:07;;;;;;;;;82.25;64.75;;;;;7.89;100.00;101467.41;5108150;27;45381;-82
2022/03/06 01:25:33;;;;;;;;;81.25;61.50;;;;;8.00;100.00;101512.00;5108973;27;45242;-81
2022/03/06 01:27:59;;;;;;;;;85.75;68.25;;;;;8.37;100.00;101561.00;5107961;27;45618;-80
2022/03/06 01:30:25;;;;;;;;;86.75;62.50;;;;;7.67;100.00;101440.41;5111385;27;45302;-80
2022/03/06 01:32:52;;;;;;;;;82.50;65.00;;;;;8.28;100.00;101560.41;5111720;27;45118;-80
2022/03/06 01:35:18;;;;;;;;;84.75;62.50;;;;;8.21;100.00;101541.78;5119438;27;45091;-80
2022/03/06 01:37:43;;;;;;;;;82.25;60.25;;;;;8.13;100.00;101539.41;5115072;27;44904;-80
2022/03/06 01:40:10;;;;;;;;;86.75;65.25;;;;;8.19;100.00;101559.94;5111030;27;45530;-80
2022/03/06 01:42:43;;;;;;;;;84.00;62.75;;;;;7.98;100.00;101526.56;5111776;27;45263;-80
2022/03/06 01:45:09;;;;;;;;;80.00;61.50;;;;;8.11;100.00;101554.88;5118692;27;45305;-80
2022/03/06 01:47:42;;;;;;;;;85.50;63.50;;;;;8.06;100.00;101559.63;5114213;27;45198;-80
2022/03/06 01:50:13;;;;;;;;;80.75;61.25;;;;;6.23;100.00;101257.28;5122158;27;45391;-80
2022/03/06 01:52:40;;;;;;;;;80.50;61.50;;;;;7.18;100.00;101432.56;5131518;27;45030;-79
2022/03/06 01:55:06;;;;;;;;;75.00;56.75;;;;;7.51;100.00;101484.38;5120041;27;45245;-81
2022/03/06 01:57:32;;;;;;;;;82.00;61.50;;;;;7.85;100.00;101550.56;5097742;27;45068;-80
2022/03/06 01:59:59;;;;;;;;;81.75;62.00;;;;;7.34;100.00;101472.47;5092537;27;45651;-79
2022/03/06 02:02:26;;;;;;;;;75.25;58.75;;;;;6.87;100.00;101423.97;5097843;27;45151;-79
2022/03/06 02:04:51;;;;;;;;;86.75;65.25;;;;;6.23;100.00;101314.88;5102579;27;44951;-79
2022/03/06 02:07:17;;;;;;;;;72.50;57.50;;;;;7.08;100.00;101457.34;5110708;27;45692;-80
2022/03/06 02:09:43;;;;;;;;;80.25;60.00;;;;;5.79;100.00;101250.97;5097877;27;45194;-79
2022/03/06 02:12:23;;;;;;;;;80.75;61.25;;;;;7.24;100.00;101486.38;5095494;27;45139;-80
2022/03/06 02:14:54;;;;;;;;;76.00;57.25;;;;;7.46;100.00;101534.22;5090383;27;45216;-79
2022/03/06 02:17:21;;;;;;;;;79.00;59.50;;;;;7.48;100.00;101537.72;5072314;28;44809;-80
2022/03/06 02:20:00;;;;;;;;;79.50;60.50;;;;;7.61;100.00;101563.31;5090204;27;45739;-79
2022/03/06 02:22:28;;;;;;;;;81.00;61.75;;;;;6.32;100.00;101359.53;5089793;27;45041;-79
2022/03/06 02:24:55;;;;;;;;;83.75;63.75;;;;;6.61;100.00;101416.91;5090127;27;45351;-80
2022/03/06 02:27:21;;;;;;;;;81.25;60.50;;;;;7.52;100.00;101563.72;5089578;28;44998;-81
2022/03/06 02:29:47;;;;;;;;;82.75;61.25;;;;;7.48;100.00;101562.94;5089541;27;45987;-81
2022/03/06 02:32:15;;;;;;;;;80.75;61.00;;;;;7.28;100.00;101525.88;5090413;27;44997;-80
2022/03/06 02:34:43;;;;;;;;;77.00;61.00;;;;;6.91;100.00;101493.19;5108455;27;45258;-79
2022/03/06 02:37:09;;;;;;;;;75.50;60.50;;;;;7.42;100.00;101556.91;5110178;27;45182;-79
2022/03/06 02:39:34;;;;;;;;;74.00;59.00;;;;;6.99;100.00;101491.03;5096980;27;45597;-79
2022/03/06 02:42:01;;;;;;;;;78.00;61.00;;;;;7.34;100.00;101559.91;5110010;27;45036;-79
2022/03/06 02:44:27;;;;;;;;;76.25;60.50;;;;;6.81;100.00;101468.34;5098278;27;46135;-79
2022/03/06 02:46:53;;;;;;;;;77.00;59.50;;;;;6.78;100.00;101463.03;5103094;27;45206;-80
2022/03/06 02:49:19;;;;;;;;;84.25;64.00;;;;;6.43;100.00;101402.31;5105823;27;45597;-80
2022/03/06 02:51:45;;;;;;;;;77.00;59.75;;;;;7.32;100.00;101561.81;5089792;27;45122;-79
2022/03/06 02:54:12;;;;;;;;;79.75;60.00;;;;;7.13;100.00;101526.50;5089067;27;45234;-79
2022/03/06 02:56:38;;;;;;;;;81.50;61.75;;;;;7.21;100.00;101540.63;5101101;27;45324;-80
2022/03/06 02:59:04;;;;;;;;;79.25;61.50;;;;;7.27;100.00;101569.22;5094308;27;46115;-79
2022/03/06 03:01:30;;;;;;;;;81.00;61.25;;;;;7.22;100.00;101569.41;5092587;27;45463;-80
2022/03/06 03:03:56;;;;;;;;;79.50;63.00;;;;;5.52;100.00;101283.41;5096892;27;45299;-79
2022/03/06 03:06:21;;;;;;;;;80.75;62.25;;;;;6.75;100.00;101506.44;5110383;27;45277;-79
2022/03/06 03:08:48;;;;;;;;;83.75;63.00;;;;;5.88;100.00;101353.09;5110237;27;45075;-81
2022/03/06 03:11:14;;;;;;;;;77.75;60.50;;;;;5.34;100.00;101265.25;5109843;27;45291;-79
2022/03/06 03:13:39;;;;;;;;;78.50;60.00;;;;;5.40;100.00;101279.38;5108664;27;45198;-80
2022/03/06 03:16:06;;;;;;;;;73.00;58.00;;;;;7.07;100.00;101575.44;5098535;27;45175;-80
2022/03/06 03:18:31;;;;;;;;;80.75;62.50;;;;;7.03;100.00;101565.66;5101989;27;45647;-80
2022/03/06 03:20:56;;;;;;;;;75.75;58.25;;;;;6.45;100.00;101476.06;5109566;27;45182;-80
2022/03/06 03:23:22;;;;;;;;;80.25;58.00;;;;;6.71;100.00;101527.28;5104900;27;45120;-80
2022/03/06 03:25:47;;;;;;;;;75.00;58.75;;;;;5.66;100.00;101361.13;5108511;27;45076;-80
2022/03/06 03:28:12;;;;;;;;;71.25;56.00;;;;;5.73;100.00;101371.66;5091569;27;45767;-80
2022/03/06 03:30:38;;;;;;;;;79.25;61.25;;;;;6.50;100.00;101510.06;5088716;27;45138;-80
2022/03/06 03:33:03;;;;;;;;;76.50;59.25;;;;;6.82;100.00;101571.91;5091857;27;45241;-79
2022/03/06 03:35:29;;;;;;;;;79.75;61.75;;;;;4.65;100.00;101195.88;5108924;27;46156;-80
2022/03/06 03:37:54;;;;;;;;;85.25;60.50;;;;;6.11;100.00;101462.94;5091020;27;47060;-79
2022/03/06 03:40:19;;;;;;;;;70.75;56.75;;;;;6.76;100.00;101573.03;5109373;27;45166;-80
2022/03/06 03:42:45;;;;;;;;;79.50;61.75;;;;;6.59;100.00;101552.06;5108810;27;45429;-79
2022/03/06 03:45:10;;;;;;;;;81.25;60.00;;;;;5.07;100.00;101296.75;5079740;28;45272;-80
2022/03/06 03:47:36;;;;;;;;;78.00;59.00;;;;;6.39;100.00;101544.72;5093269;27;45240;-79
2022/03/06 03:50:03;;;;;;;;;84.75;63.00;;;;;6.08;100.00;101490.91;5100508;27;45186;-81
2022/03/06 03:52:28;;;;;;;;;78.50;61.75;;;;;6.59;100.00;101598.00;5090379;27;45097;-80
2022/03/06 03:54:54;;;;;;;;;83.75;62.50;;;;;6.19;100.00;101541.84;5088425;28;45065;-79
2022/03/06 03:57:19;;;;;;;;;78.00;60.00;;;;;5.35;100.00;101407.19;5087983;27;45986;-79
2022/03/06 03:59:44;;;;;;;;;81.75;61.00;;;;;6.23;100.00;101563.28;5090798;27;45016;-80
2022/03/06 04:02:10;;;;;;;;;79.75;61.25;;;;;6.41;100.00;101613.03;5070762;27;45037;-80
2022/03/06 04:04:35;;;;;;;;;78.75;60.50;;;;;6.15;100.00;101548.28;5099189;27;45223;-79
2022/03/06 04:07:01;;;;;;;;;74.25;56.00;;;;;6.17;100.00;101551.81;5088884;27;45133;-78
2022/03/06 04:09:26;;;;;;;;;76.25;61.75;;;;;5.06;100.00;101382.13;5087613;27;45214;-78
2022/03/06 04:11:52;;;;;;;;;82.00;64.50;;;;;6.31;100.00;101603.50;5087842;27;45252;-78
2022/03/06 04:14:17;;;;;;;;;72.00;56.00;;;;;4.62;100.00;101316.28;5096515;27;45324;-77
2022/03/06 04:16:43;;;;;;;;;78.00;58.75;;;;;5.14;100.00;101415.09;5088391;27;45819;-78
2022/03/06 04:19:09;;;;;;;;;74.00;56.50;;;;;4.15;100.00;101260.38;5088332;27;45104;-78
2022/03/06 04:21:34;;;;;;;;;72.25;58.00;;;;;4.78;100.00;101384.00;5097908;27;45145;-79
2022/03/06 04:23:59;;;;;;;;;77.25;62.50;;;;;5.04;100.00;101443.28;5108187;27;45336;-77
2022/03/06 04:26:25;;;;;;;;;78.75;58.75;;;;;5.53;100.00;101510.88;5108380;27;45084;-79
2022/03/06 04:28:50;;;;;;;;;83.00;63.00;;;;;6.10;100.00;101626.75;5089632;27;45139;-78
2022/03/06 04:31:16;;;;;;;;;81.75;61.50;;;;;5.70;100.00;101563.28;5105591;27;45150;-78
2022/03/06 04:33:42;;;;;;;;;84.75;62.50;;;;;6.09;100.00;101613.31;5087855;27;45085;-79
2022/03/06 04:36:08;;;;;;;;;87.00;65.00;;;;;4.79;100.00;101400.09;5089339;27;45061;-78
2022/03/06 04:38:34;;;;;;;;;80.25;62.75;;;;;5.13;100.00;101455.59;5108044;27;45947;-78
2022/03/06 04:40:59;;;;;;;;;81.75;61.50;;;;;5.87;100.00;101592.38;5103801;27;45144;-78
2022/03/06 04:43:24;;;;;;;;;76.75;59.25;;;;;5.64;100.00;101557.25;5087712;28;44916;-79
2022/03/06 04:45:50;;;;;;;;;72.00;56.75;;;;;6.04;100.00;101628.78;5104119;27;45777;-78
2022/03/06 04:48:19;;;;;;;;;85.00;63.50;;;;;3.86;100.00;101265.81;5108363;27;45475;-79
2022/03/06 04:50:44;;;;;;;;;80.50;62.50;;;;;3.87;100.00;101275.66;5074202;27;45147;-79
2022/03/06 04:53:10;;;;;;;;;80.25;60.50;;;;;4.71;100.00;101441.66;5098656;27;45212;-78
2022/03/06 04:55:35;;;;;;;;;84.00;62.00;;;;;4.06;100.00;101319.00;5087092;27;45909;-78
2022/03/06 04:58:00;;;;;;;;;79.00;61.50;;;;;3.57;100.00;101251.44;5088780;27;45097;-78
2022/03/06 05:00:26;;;;;;;;;79.75;62.75;;;;;5.87;100.00;101640.09;5072527;27;45458;-78
2022/03/06 05:02:51;;;;;;;;;82.25;61.75;;;;;4.65;100.00;101426.59;5107852;27;45262;-78
2022/03/06 05:05:17;;;;;;;;;84.25;64.00;;;;;4.80;100.00;101463.81;5111459;27;46071;-78
2022/03/06 05:07:42;;;;;;;;;80.25;62.75;;;;;4.72;100.00;101462.31;5109224;27;45092;-79
2022/03/06 05:10:11;;;;;;;;;82.50;61.75;;;;;4.90;100.00;101486.84;5107449;27;45087;-78
2022/03/06 05:12:38;;;;;;;;;82.75;62.25;;;;;4.81;100.00;101481.72;5082771;27;45313;-79
2022/03/06 05:15:06;;;;;;;;;77.50;59.75;;;;;5.75;100.00;101630.59;5096745;27;45153;-79
2022/03/06 05:17:34;;;;;;;;;83.25;63.00;;;;;5.36;100.00;101570.72;5100753;27;44986;-78
2022/03/06 05:19:59;;;;;;;;;79.75;61.25;;;;;5.07;100.00;101525.84;5095612;27;45339;-79
2022/03/06 05:22:24;;;;;;;;;86.00;63.00;;;;;5.63;100.00;101639.97;5102311;27;44939;-79
2022/03/06 05:24:50;;;;;;;;;78.50;60.50;;;;;5.62;100.00;101635.50;5107227;27;45671;-78
2022/03/06 05:27:15;;;;;;;;;78.50;59.00;;;;;5.45;100.00;101621.69;5091252;27;44982;-78
2022/03/06 05:29:40;;;;;;;;;81.75;61.00;;;;;5.22;100.00;101576.59;5092294;27;45470;-78
2022/03/06 05:32:06;;;;;;;;;81.75;65.75;;;;;4.73;100.00;101513.44;5090991;27;45112;-79
2022/03/06 05:34:32;;;;;;;;;79.00;61.50;;;;;4.33;100.00;101433.00;5090107;27;46020;-79
2022/03/06 05:36:57;;;;;;;;;81.25;62.25;;;;;3.51;100.00;101312.59;5090719;27;45190;-79
2022/03/06 05:39:22;;;;;;;;;79.00;60.50;;;;;5.58;100.00;101650.03;5097854;27;45451;-78
2022/03/06 05:41:48;;;;;;;;;87.00;66.50;;;;;5.42;100.00;101619.06;5102821;27;45215;-78
2022/03/06 05:44:13;;;;;;;;;79.50;60.75;;;;;5.32;100.00;101607.72;5090193;27;45270;-78
2022/03/06 05:46:39;;;;;;;;;79.00;60.75;;;;;4.68;100.00;101496.53;5090771;27;45258;-78
2022/03/06 05:49:12;;;;;;;;;83.50;63.00;;;;;5.58;100.00;101663.53;5096749;27;45200;-79
2022/03/06 05:51:41;;;;;;;;;83.25;64.00;;;;;5.39;100.00;101643.44;5072219;28;45243;-78
2022/03/06 05:54:07;;;;;;;;;79.50;60.50;;;;;5.58;100.00;101662.63;5089601;27;45374;-78
2022/03/06 05:56:33;;;;;;;;;83.00;66.00;;;;;5.46;100.00;101648.59;5113270;27;45023;-78
2022/03/06 05:58:58;;;;;;;;;80.00;62.00;;;;;5.07;100.00;101587.81;5125797;27;45061;-78
2022/03/06 06:01:24;;;;;;;;;82.75;62.50;;;;;5.11;100.00;101611.94;5119463;27;45171;-78
2022/03/06 06:03:49;;;;;;;;;83.75;63.25;;;;;4.46;100.00;101487.31;5094986;27;46371;-78
2022/03/06 06:06:15;;;;;;;;;84.00;59.75;;;;;4.94;100.00;101576.53;5110726;27;45129;-78
2022/03/06 06:08:41;;;;;;;;;78.50;57.25;;;;;5.49;100.00;101679.09;5112746;27;45455;-78
2022/03/06 06:11:07;;;;;;;;;74.50;60.50;;;;;5.50;100.00;101675.47;5097815;27;45300;-78
2022/03/06 06:13:33;;;;;;;;;79.75;60.75;;;;;5.19;100.00;101628.78;5114520;27;46032;-77
2022/03/06 06:15:59;;;;;;;;;85.50;64.00;;;;;5.47;100.00;101680.03;5110444;27;45354;-78
2022/03/06 06:18:27;;;;;;;;;87.75;63.00;;;;;5.45;100.00;101681.88;5111132;27;45256;-78
2022/03/06 06:20:53;;;;;;;;;84.25;63.00;;;;;4.94;100.00;101590.03;5121215;27;45043;-78
2022/03/06 06:23:18;;;;;;;;;79.50;63.75;;;;;4.78;100.00;101565.34;5131291;27;46282;-78
2022/03/06 06:25:44;;;;;;;;;86.00;63.75;;;;;5.09;100.00;101635.38;5112704;27;45060;-78
2022/03/06 06:28:09;;;;;;;;;84.50;64.25;;;;;5.43;100.00;101685.56;5124212;27;45246;-79
2022/03/06 06:30:34;;;;;;;;;86.75;64.00;;;;;5.41;100.00;101692.81;5120733;27;45106;-78
2022/03/06 06:33:00;;;;;;;;;90.50;65.75;;;;;5.39;100.00;101686.59;5110642;27;45246;-78
2022/03/06 06:35:25;;;;;;;;;84.50;65.50;;;;;5.37;100.00;101694.75;5113150;27;45139;-78
2022/03/06 06:37:51;;;;;;;;;82.25;63.25;;;;;4.58;100.00;101567.75;5114787;27;45618;-77
2022/03/06 06:40:16;;;;;;;;;88.25;64.75;;;;;4.97;100.00;101624.97;5110266;27;45155;-78
2022/03/06 06:42:41;;;;;;;;;79.50;61.75;;;;;5.24;100.00;101671.75;5115291;27;45350;-78
2022/03/06 06:45:07;;;;;;;;;90.50;67.25;;;;;5.25;100.00;101696.91;5110667;27;45242;-78
2022/03/06 06:47:33;;;;;;;;;83.75;63.00;;;;;3.76;100.00;101466.91;5114091;27;45362;-78
2022/03/06 06:49:58;;;;;;;;;88.00;65.50;;;;;3.87;100.00;101483.63;5120507;27;45100;-78
2022/03/06 06:52:23;;;;;;;;;90.50;66.00;;;;;3.96;100.00;101501.34;5110966;27;47315;-78
2022/03/06 06:54:49;;;;;;;;;84.00;63.75;;;;;3.78;100.00;101494.63;5120024;27;45072;-79
2022/03/06 06:57:14;;;;;;;;;79.75;59.75;;;;;4.78;100.00;101653.38;5101057;27;45094;-77
2022/03/06 06:59:39;;;;;;;;;77.50;58.00;;;;;3.93;100.00;101512.16;5100226;27;45171;-78
2022/03/06 07:02:05;;;;;;;;;82.50;65.00;;;;;3.38;100.00;101422.22;5088985;27;45512;-78
2022/03/06 07:04:30;;;;;;;;;85.75;62.75;;;;;5.00;100.00;101704.81;5089316;27;45138;-78
2022/03/06 07:06:56;;;;;;;;;79.75;59.75;;;;;4.62;100.00;101655.63;5091463;27;45288;-78
2022/03/06 07:09:21;;;;;;;;;87.75;65.50;;;;;5.00;100.00;101727.25;5089648;27;45153;-78
2022/03/06 07:11:46;;;;;;;;;81.25;62.75;;;;;3.99;100.00;101575.69;5074829;27;46197;-79
2022/03/06 07:14:12;;;;;;;;;85.25;65.50;;;;;4.55;100.00;101670.16;5102623;27;45083;-79
2022/03/06 07:16:37;;;;;;;;;88.25;63.75;;;;;3.55;100.00;101489.88;5097969;27;45898;-78
2022/03/06 07:19:02;;;;;;;;;82.75;63.00;;;;;2.86;100.00;101410.13;5101457;27;44992;-78
2022/03/06 07:21:31;;;;;;;;;86.00;66.75;;;;;4.47;100.00;101675.78;5092916;27;45610;-77
2022/03/06 07:23:56;;;;;;;;;87.75;65.00;;;;;4.78;100.00;101727.00;5097084;27;45182;-78
2022/03/06 07:26:21;;;;;;;;;80.25;62.75;;;;;4.83;100.00;101740.34;5100967;27;45174;-77
2022/03/06 07:28:47;;;;;;;;;89.25;68.50;;;;;4.78;100.00;101747.66;5096111;27;45206;-78
2022/03/06 07:31:12;;;;;;;;;83.50;61.25;;;;;4.73;100.00;101739.69;5101978;27;45401;-78
2022/03/06 07:33:38;;;;;;;;;90.25;67.25;;;;;4.25;100.00;101670.03;5078802;27;45187;-78
2022/03/06 07:36:05;;;;;;;;;87.00;64.00;;;;;3.38;100.00;101524.34;5100583;27;45307;-77
2022/03/06 07:38:30;;;;;;;;;88.25;64.00;;;;;2.76;100.00;101430.06;5090180;27;45287;-78
2022/03/06 07:40:55;;;;;;;;;83.75;61.00;;;;;3.42;100.00;101550.25;5106845;27;45631;-78
2022/03/06 07:43:21;;;;;;;;;81.50;63.75;;;;;4.40;100.00;101712.72;5098405;27;45428;-80
2022/03/06 07:45:46;;;;;;;;;82.25;64.75;;;;;4.17;100.00;101680.16;5101392;27;45107;-80
2022/03/06 07:48:12;;;;;;;;;85.00;65.50;;;;;3.94;100.00;101637.66;5092049;27;45337;-79
2022/03/06 07:50:37;;;;;;;;;85.75;64.25;;;;;4.38;100.00;101719.97;5097134;27;45296;-79
2022/03/06 07:53:02;;;;;;;;;85.50;67.00;;;;;2.98;100.00;101471.59;5104008;27;44965;-79
2022/03/06 07:55:28;;;;;;;;;85.50;63.75;;;;;3.52;100.00;101580.47;5096394;27;45381;-79
2022/03/06 07:57:53;;;;;;;;;88.00;65.75;;;;;4.55;100.00;101732.09;5099238;27;45207;-79
2022/03/06 08:00:18;;;;;;;;;81.75;62.25;;;;;3.24;100.00;101511.25;5080106;27;46822;-79
2022/03/06 08:02:44;;;;;;;;;90.75;67.75;;;;;4.62;100.00;101760.66;5099491;27;45223;-79
2022/03/06 08:05:09;;;;;;;;;91.00;69.25;;;;;4.19;100.00;101682.78;5105604;27;45056;-79
2022/03/06 08:07:35;;;;;;;;;84.75;65.75;;;;;4.75;100.00;101786.31;5096525;27;45194;-78
2022/03/06 08:10:04;;;;;;;;;85.75;62.75;;;;;4.49;100.00;101732.25;5098621;27;45033;-79
2022/03/06 08:12:29;;;;;;;;;88.00;67.50;;;;;4.83;100.00;101786.13;5090750;27;45174;-79
2022/03/06 08:14:55;;;;;;;;;85.25;66.75;;;;;4.41;100.00;101714.50;5093730;27;45462;-79
2022/03/06 08:17:20;;;;;;;;;82.25;64.25;;;;;4.89;100.00;101799.44;5096791;27;45241;-79
2022/03/06 08:19:46;;;;;;;;;83.25;64.50;;;;;4.93;100.00;101810.09;5103530;27;45260;-80
2022/03/06 08:22:12;;;;;;;;;80.25;64.00;;;;;4.93;100.00;101809.22;5096144;27;45183;-79
2022/03/06 08:24:38;;;;;;;;;82.00;61.50;;;;;4.23;100.00;101693.44;5069486;27;45471;-79
2022/03/06 08:27:04;;;;;;;;;86.50;64.50;;;;;4.77;100.00;101779.09;5100709;27;45123;-77
2022/03/06 08:29:29;;;;;;;;;84.25;62.50;;;;;4.89;100.00;101796.75;5095340;27;46518;-77
2022/03/06 08:31:54;;;;;;;;;85.50;61.75;;;;;4.18;100.00;101671.16;5094899;27;45026;-78
2022/03/06 08:34:20;;;;;;;;;85.50;64.00;;;;;4.85;100.00;101779.75;5100220;27;45144;-79
2022/03/06 08:36:46;;;;;;;;;80.50;61.00;;;;;4.67;100.00;101747.94;5078232;27;45190;-79
2022/03/06 08:39:11;;;;;;;;;78.25;59.00;;;;;4.98;100.00;101799.19;5098415;27;45072;-79
2022/03/06 08:41:36;;;;;;;;;81.75;62.50;;;;;4.67;100.00;101739.88;5104579;27;45014;-79
2022/03/06 08:44:02;;;;;;;;;79.00;62.00;;;;;4.56;100.00;101715.00;5105525;27;45330;-79
2022/03/06 08:46:28;;;;;;;;;83.00;64.50;;;;;4.52;100.00;101699.88;5087649;27;45239;-80
2022/03/06 08:48:53;;;;;;;;;83.50;64.25;;;;;5.12;100.00;101796.09;5106256;27;45374;-80
2022/03/06 08:51:18;;;;;;;;;85.25;64.25;;;;;5.20;100.00;101811.13;5097784;27;45191;-79
2022/03/06 08:53:44;;;;;;;;;84.75;59.50;;;;;5.05;100.00;101779.22;5095361;27;45019;-79
2022/03/06 08:56:09;;;;;;;;;81.25;63.75;;;;;4.88;100.00;101750.06;5091132;27;45267;-78
2022/03/06 08:58:35;;;;;;;;;78.75;63.00;;;;;4.92;100.00;101740.97;5075778;27;46210;-79
2022/03/06 09:01:00;;;;;;;;;70.75;57.00;;;;;5.37;100.00;101815.16;5089473;27;45240;-79
2022/03/06 09:03:26;;;;;;;;;78.25;60.25;;;;;5.28;100.00;101802.84;5101223;27;45418;-79
2022/03/06 09:05:51;;;;;;;;;74.00;57.50;;;;;5.00;100.00;101777.59;5100149;27;45276;-79
2022/03/06 09:08:16;;;;;;;;;76.25;60.25;;;;;5.00;100.00;101775.78;5099826;27;45629;-79
2022/03/06 09:10:42;;;;;;;;;75.00;58.75;;;;;4.75;100.00;101721.66;5081932;27;45215;-79
2022/03/06 09:13:08;;;;;;;;;70.75;52.50;;;;;5.36;100.00;101824.19;5101220;27;45209;-78
2022/03/06 09:15:35;;;;;;;;;78.25;58.75;;;;;4.63;100.00;101720.19;5102322;27;45175;-78
2022/03/06 09:18:00;;;;;;;;;80.25;60.75;;;;;5.33;100.00;101827.88;5100188;27;45822;-79
2022/03/06 09:20:26;;;;;;;;;81.00;58.25;;;;;5.40;100.00;101821.38;5098630;27;45075;-79
2022/03/06 09:22:52;;;;;;;;;72.00;56.25;;;;;5.43;100.00;101824.00;5096174;27;45263;-79
2022/03/06 09:25:17;;;;;;;;;71.50;55.00;;;;;5.47;100.00;101820.28;5100255;27;45123;-78
2022/03/06 09:27:44;;;;;;;;;66.75;51.00;;;;;5.54;100.00;101814.72;5095040;27;45408;-79
2022/03/06 09:30:10;;;;;;;;;66.50;54.00;;;;;5.55;100.00;101820.03;5103153;27;45060;-79
2022/03/06 09:32:36;;;;;;;;;75.25;57.75;;;;;4.82;100.00;101688.25;5100650;27;45198;-78
2022/03/06 09:35:02;;;;;;;;;67.25;49.75;;;;;5.26;100.00;101760.69;5100858;27;45310;-79
2022/03/06 09:37:27;;;;;;;;;67.50;52.00;;;;;4.77;100.00;101673.16;5097677;27;46747;-78
2022/03/06 09:39:53;;;;;;;;;68.75;54.00;;;;;4.54;100.00;101639.66;5099530;27;45045;-78
2022/03/06 09:42:19;;;;;;;;;64.50;52.25;;;;;5.78;100.00;101829.25;5098939;27;45111;-79
2022/03/06 09:44:48;;;;;;;;;63.25;52.00;;;;;5.08;100.00;101694.72;5097579;27;45196;-78
2022/03/06 09:47:14;;;;;;;;;60.25;49.75;;;;;5.48;100.00;101769.91;5099646;27;45555;-79
2022/03/06 09:49:43;;;;;;;;;64.00;51.50;;;;;5.97;100.00;101833.22;5095643;27;46091;-78
2022/03/06 09:52:09;;;;;;;;;59.50;50.25;;;;;6.01;100.00;101843.00;5093987;27;44933;-79
2022/03/06 09:54:35;;;;;;;;;68.00;50.00;;;;;6.05;100.00;101841.97;5074394;28;45109;-79
2022/03/06 09:57:01;;;;;;;;;68.25;52.50;;;;;5.44;100.00;101743.97;5111243;27;47544;-78
2022/03/06 09:59:27;;;;;;;;;59.00;46.75;;;;;5.58;100.00;101752.53;5100677;27;45241;-78
2022/03/06 10:01:52;;;;;;;;;61.25;49.50;;;;;6.08;100.00;101827.47;5090624;27;45227;-79
2022/03/06 10:04:34;;;;;;;;;67.50;46.25;;;;;6.20;100.00;101837.91;5092327;27;45410;-78
2022/03/06 10:07:03;;;;;;;;;59.25;47.25;;;;;5.62;100.00;101738.00;5091035;27;45696;-78
2022/03/06 10:09:30;;;;;;;;;56.50;45.75;;;;;6.27;100.00;101842.19;5097843;27;45129;-79
2022/03/06 10:11:55;;;;;;;;;48.25;41.50;;;;;6.29;100.00;101825.94;5101331;27;45379;-78
2022/03/06 10:14:39;;;;;;;;;54.50;42.75;;;;;6.29;100.00;101824.13;5101675;27;45363;-79
2022/03/06 10:17:13;;;;;;;;;59.25;47.25;;;;;6.44;100.00;101833.56;5102821;27;46046;-78
2022/03/06 10:19:59;;;;;;;;;54.75;44.75;;;;;6.50;100.00;101838.75;5090489;27;45222;-78
2022/03/06 10:22:30;;;;;;;;;58.75;46.50;;;;;6.56;100.00;101838.53;5098243;27;45370;-79
2022/03/06 10:24:58;;;;;;;;;33.25;30.00;;;;;6.59;100.00;101837.53;5098419;27;45263;-78
2022/03/06 10:27:54;;;;;;;;;52.25;42.00;;;;;6.43;100.00;101804.75;5106112;27;46162;-78
2022/03/06 10:30:26;;;;;;;;;52.75;40.50;;;;;6.21;99.32;101758.66;5085822;27;45188;-79
2022/03/06 10:32:52;;;;;;;;;53.00;44.25;;;;;6.51;98.05;101802.69;5098041;27;45547;-78
2022/03/06 10:35:18;;;;;;;;;48.75;39.75;;;;;6.19;94.95;101756.03;5098710;27;45657;-79
2022/03/06 10:37:43;;;;;;;;;44.00;37.25;;;;;6.65;93.54;101807.63;5100899;27;45131;-79
2022/03/06 10:40:14;;;;;;;;;42.00;38.25;;;;;6.81;92.72;101826.91;5093253;27;45234;-78
2022/03/06 10:42:43;;;;;;;;;43.25;36.75;;;;;6.84;96.04;101824.97;5087643;27;45509;-77
2022/03/06 10:45:23;;;;;;;;;48.00;36.75;;;;;6.87;83.08;101833.00;5099830;27;45232;-81
2022/03/06 10:47:48;;;;;;;;;40.25;34.50;;;;;6.92;85.53;101846.34;5089697;27;45641;-78
2022/03/06 10:50:20;;;;;;;;;43.50;37.00;;;;;6.96;84.66;101840.78;5100418;27;45069;-79
2022/03/06 10:52:46;;;;;;;;;32.50;31.25;;;;;5.34;84.13;101549.22;5095672;27;45464;-79
2022/03/06 10:55:11;;;;;;;;;39.25;34.25;;;;;7.06;86.46;101844.06;5107006;27;45496;-79
2022/03/06 10:57:37;;;;;;;;;28.25;25.75;;;;;5.34;82.55;101535.75;5096116;27;46400;-78
2022/03/06 11:00:04;;;;;;;;;34.50;29.75;;;;;7.15;82.84;101842.88;5093484;27;45298;-79
2022/03/06 11:02:30;;;;;;;;;36.00;33.75;;;;;5.77;80.46;101595.47;5088557;27;45114;-82
2022/03/06 11:04:58;;;;;;;;;43.50;36.00;;;;;6.75;81.78;101749.63;5067023;28;45186;-80